Time;durP1;ratioP1;P1;durP2;ratioP2;P2;SDS_P1;SDS_P2;PMS_P1;PMS_P2;Temp;Humidity;BMP_temperature;BMP_pressure;BME280_temperature;BME280_humidity;BME280_pressure;Samples;Min_cycle;Max_cycle;Signal;HPM_P1;HPM_P2
2022/03/27 00:01:01;;;;;;;;;50.75;39.00;;;;;;;;5028794;28;52281;-59
2022/03/27 00:03:27;;;;;;;;;46.00;35.75;;;;;;;;5016796;28;51332;-58
2022/03/27 00:05:52;;;;;;;;;42.00;34.75;;;;;;;;5024032;28;51858;-60
2022/03/27 00:08:17;;;;;;;;;40.25;35.25;;;;;;;;5029803;28;51028;-59
2022/03/27 00:13:26;;;;;;;;;40.25;36.00;;;;;;;;5027401;28;51087;-60
2022/03/27 00:15:51;;;;;;;;;40.50;34.50;;;;;;;;5029730;28;51371;-58
2022/03/27 00:18:16;;;;;;;;;50.25;38.50;;;;;;;;5019400;28;51717;-59
2022/03/27 00:20:42;;;;;;;;;42.50;36.00;;;;;;;;5030508;28;51917;-59
2022/03/27 00:23:07;;;;;;;;;40.50;35.25;;;;;;;;5031115;28;51246;-59
2022/03/27 00:25:32;;;;;;;;;43.00;36.00;;;;;;;;5030012;28;51449;-62
2022/03/27 00:27:57;;;;;;;;;46.50;38.75;;;;;;;;5025486;28;51158;-60
2022/03/27 00:30:23;;;;;;;;;42.00;36.75;;;;;;;;5031912;28;51643;-59
2022/03/27 00:32:48;;;;;;;;;42.00;36.50;;;;;;;;5027135;28;51023;-62
2022/03/27 00:35:15;;;;;;;;;44.75;38.50;;;;;;;;5029543;28;51113;-58
2022/03/27 00:37:40;;;;;;;;;43.75;37.50;;;;;;;;5032416;28;51484;-60
2022/03/27 00:40:05;;;;;;;;;45.00;38.75;;;;;;;;5040620;28;51069;-60
2022/03/27 00:42:30;;;;;;;;;41.75;36.25;;;;;;;;5024297;28;51178;-59
2022/03/27 00:44:56;;;;;;;;;41.75;37.00;;;;;;;;5029908;28;51342;-60
2022/03/27 00:47:21;;;;;;;;;39.50;35.25;;;;;;;;5026502;28;51675;-59
2022/03/27 00:49:46;;;;;;;;;44.50;36.75;;;;;;;;5028934;28;51882;-59
2022/03/27 00:52:12;;;;;;;;;44.00;38.75;;;;;;;;5028584;28;51213;-59
2022/03/27 00:54:37;;;;;;;;;44.00;35.50;;;;;;;;5029001;28;51281;-59
2022/03/27 00:57:02;;;;;;;;;44.25;38.25;;;;;;;;5024232;28;51348;-59
2022/03/27 00:59:27;;;;;;;;;44.50;37.00;;;;;;;;5026768;28;52732;-59
2022/03/27 01:01:52;;;;;;;;;43.75;37.75;;;;;;;;5032750;28;51019;-59
2022/03/27 01:04:18;;;;;;;;;49.00;38.25;;;;;;;;5026827;28;51083;-58
2022/03/27 01:06:44;;;;;;;;;47.75;39.00;;;;;;;;5029035;28;51262;-59
2022/03/27 01:12:14;;;;;;;;;54.00;43.50;;;;;;;;5031303;28;51305;-59
2022/03/27 01:14:40;;;;;;;;;48.00;38.00;;;;;;;;5028062;28;51141;-59
2022/03/27 01:17:08;;;;;;;;;43.50;37.75;;;;;;;;5025865;28;51206;-61
2022/03/27 01:19:33;;;;;;;;;45.50;37.50;;;;;;;;5032200;28;52030;-59
2022/03/27 01:22:00;;;;;;;;;50.00;38.50;;;;;;;;5033080;28;51209;-59
2022/03/27 01:24:25;;;;;;;;;46.00;38.00;;;;;;;;5018956;28;51144;-59
2022/03/27 01:26:50;;;;;;;;;53.75;42.25;;;;;;;;5024975;28;51488;-59
2022/03/27 01:29:16;;;;;;;;;46.50;38.25;;;;;;;;5031204;28;51683;-58
2022/03/27 01:31:42;;;;;;;;;42.75;36.75;;;;;;;;5031630;28;51057;-58
2022/03/27 01:34:07;;;;;;;;;53.75;40.00;;;;;;;;5022639;28;51102;-59
2022/03/27 01:36:34;;;;;;;;;47.25;39.50;;;;;;;;5027366;28;52497;-59
2022/03/27 01:39:00;;;;;;;;;46.75;39.25;;;;;;;;5034809;28;51771;-60
2022/03/27 01:41:25;;;;;;;;;49.75;40.25;;;;;;;;5026315;28;51127;-59
2022/03/27 01:43:51;;;;;;;;;49.00;39.00;;;;;;;;5022360;28;51266;-59
2022/03/27 01:46:16;;;;;;;;;47.50;39.25;;;;;;;;5021714;28;51320;-59
2022/03/27 01:48:41;;;;;;;;;51.25;41.75;;;;;;;;5031380;28;51022;-60
2022/03/27 01:51:07;;;;;;;;;53.50;41.00;;;;;;;;5023994;28;51438;-59
2022/03/27 01:53:35;;;;;;;;;44.25;38.75;;;;;;;;5019807;28;51110;-60
2022/03/27 01:56:00;;;;;;;;;49.75;40.75;;;;;;;;5028199;28;51432;-59
2022/03/27 01:58:25;;;;;;;;;52.75;39.00;;;;;;;;5028686;28;51140;-59
2022/03/27 02:00:51;;;;;;;;;47.00;38.50;;;;;;;;5030117;28;51073;-59
2022/03/27 02:03:16;;;;;;;;;48.25;39.25;;;;;;;;5026912;28;51526;-59
2022/03/27 02:05:42;;;;;;;;;41.50;36.25;;;;;;;;5022199;28;51059;-58
2022/03/27 02:08:09;;;;;;;;;50.50;42.25;;;;;;;;5017188;28;53699;-59
2022/03/27 02:10:34;;;;;;;;;52.00;41.75;;;;;;;;5022152;28;51332;-60
2022/03/27 02:12:59;;;;;;;;;48.50;39.00;;;;;;;;5016879;28;51708;-58
2022/03/27 02:15:25;;;;;;;;;52.00;41.25;;;;;;;;5030696;28;51030;-59
2022/03/27 02:17:51;;;;;;;;;49.50;40.00;;;;;;;;5015243;28;52715;-60
2022/03/27 02:20:16;;;;;;;;;44.50;38.00;;;;;;;;5049759;28;50934;-59
2022/03/27 02:22:41;;;;;;;;;48.25;40.00;;;;;;;;5035000;28;50843;-59
2022/03/27 02:25:07;;;;;;;;;47.00;38.50;;;;;;;;5023036;28;51891;-60
2022/03/27 02:27:32;;;;;;;;;46.50;38.75;;;;;;;;5020323;28;51835;-60
2022/03/27 02:29:58;;;;;;;;;50.25;41.25;;;;;;;;5027975;28;51118;-60
2022/03/27 02:32:23;;;;;;;;;45.00;37.00;;;;;;;;5021742;28;51438;-59
2022/03/27 02:34:48;;;;;;;;;46.25;38.50;;;;;;;;5027979;28;51398;-60
2022/03/27 02:37:14;;;;;;;;;50.25;41.75;;;;;;;;5021394;28;51923;-59
2022/03/27 02:39:44;;;;;;;;;49.75;40.00;;;;;;;;5028809;28;51071;-59
2022/03/27 02:42:09;;;;;;;;;44.25;38.25;;;;;;;;5021312;28;51182;-60
2022/03/27 02:44:34;;;;;;;;;50.75;40.00;;;;;;;;5023886;28;51076;-60
2022/03/27 02:46:59;;;;;;;;;48.00;38.00;;;;;;;;5037164;28;51233;-59
2022/03/27 02:49:25;;;;;;;;;45.50;39.00;;;;;;;;5031132;28;51073;-59
2022/03/27 02:51:50;;;;;;;;;40.75;35.25;;;;;;;;5028515;28;51032;-58
2022/03/27 02:54:15;;;;;;;;;50.25;39.50;;;;;;;;5024843;28;51160;-59
2022/03/27 02:56:41;;;;;;;;;45.50;39.00;;;;;;;;5021996;28;52255;-59
2022/03/27 02:59:06;;;;;;;;;43.75;37.75;;;;;;;;5029426;28;50905;-59
2022/03/27 03:01:32;;;;;;;;;45.75;38.25;;;;;;;;5025017;28;51028;-59
2022/03/27 03:03:57;;;;;;;;;44.50;38.75;;;;;;;;5017737;28;51348;-59
2022/03/27 03:06:26;;;;;;;;;51.00;40.00;;;;;;;;5027673;28;51377;-60
2022/03/27 03:08:51;;;;;;;;;41.00;36.00;;;;;;;;5019399;28;51067;-58
2022/03/27 03:11:20;;;;;;;;;42.25;37.25;;;;;;;;5027354;28;51151;-58
2022/03/27 03:13:47;;;;;;;;;48.50;39.00;;;;;;;;5021814;28;51156;-59
2022/03/27 03:16:14;;;;;;;;;48.00;39.50;;;;;;;;5026186;28;51254;-58
2022/03/27 03:18:39;;;;;;;;;50.25;40.50;;;;;;;;5022047;28;51117;-59
2022/03/27 03:21:05;;;;;;;;;47.25;39.25;;;;;;;;5026298;28;51050;-58
2022/03/27 03:23:30;;;;;;;;;45.75;37.75;;;;;;;;5028860;28;50991;-59
2022/03/27 03:25:55;;;;;;;;;45.75;37.00;;;;;;;;5025689;28;51026;-60
2022/03/27 03:28:20;;;;;;;;;42.75;37.00;;;;;;;;5029116;28;51098;-59
2022/03/27 03:30:46;;;;;;;;;46.50;36.75;;;;;;;;5025667;28;51161;-60
2022/03/27 03:33:12;;;;;;;;;44.50;37.25;;;;;;;;5030647;28;51340;-60
2022/03/27 03:35:37;;;;;;;;;45.25;37.00;;;;;;;;5021556;28;52725;-60
2022/03/27 03:38:02;;;;;;;;;40.50;36.25;;;;;;;;5040648;28;51244;-60
2022/03/27 03:40:27;;;;;;;;;44.75;37.00;;;;;;;;5025080;28;51039;-59
2022/03/27 03:42:53;;;;;;;;;43.50;38.00;;;;;;;;5028743;28;51980;-60
2022/03/27 03:45:18;;;;;;;;;41.50;36.50;;;;;;;;5030382;28;51652;-58
2022/03/27 03:47:43;;;;;;;;;41.00;35.00;;;;;;;;5019814;28;51121;-60
2022/03/27 03:50:10;;;;;;;;;41.75;36.50;;;;;;;;5030246;28;51115;-60
2022/03/27 03:52:35;;;;;;;;;40.75;35.25;;;;;;;;5031263;28;51254;-58
2022/03/27 03:55:00;;;;;;;;;41.75;35.50;;;;;;;;5031966;28;51121;-60
2022/03/27 03:57:25;;;;;;;;;41.50;35.00;;;;;;;;5017272;28;51457;-60
2022/03/27 03:59:51;;;;;;;;;41.25;35.00;;;;;;;;5024643;28;51073;-60
2022/03/27 04:02:18;;;;;;;;;46.50;36.75;;;;;;;;5030200;28;51099;-60
2022/03/27 04:04:44;;;;;;;;;46.25;37.00;;;;;;;;5017626;28;51207;-59
2022/03/27 04:07:09;;;;;;;;;40.50;35.00;;;;;;;;5020536;28;51095;-60
2022/03/27 04:09:35;;;;;;;;;35.25;33.00;;;;;;;;5030698;28;51108;-60
2022/03/27 04:12:00;;;;;;;;;37.25;34.50;;;;;;;;5024072;28;51398;-60
2022/03/27 04:14:26;;;;;;;;;36.25;30.50;;;;;;;;5015345;28;51743;-60
2022/03/27 04:16:51;;;;;;;;;41.75;35.25;;;;;;;;5023103;28;51178;-59
2022/03/27 04:19:17;;;;;;;;;42.00;36.00;;;;;;;;5023425;28;51119;-59
2022/03/27 04:21:42;;;;;;;;;38.00;35.00;;;;;;;;5018444;28;51287;-60
2022/03/27 04:24:08;;;;;;;;;39.50;32.50;;;;;;;;5023067;28;51683;-59
2022/03/27 04:26:34;;;;;;;;;37.50;32.75;;;;;;;;5016407;28;51586;-59
2022/03/27 04:28:59;;;;;;;;;32.50;31.50;;;;;;;;5021419;28;51277;-59
2022/03/27 04:31:25;;;;;;;;;37.00;34.00;;;;;;;;5030821;28;51070;-59
2022/03/27 04:33:50;;;;;;;;;39.00;35.50;;;;;;;;5024589;28;51912;-59
2022/03/27 04:36:15;;;;;;;;;28.75;28.00;;;;;;;;5013199;28;50958;-59
2022/03/27 04:38:40;;;;;;;;;42.00;34.50;;;;;;;;5029262;28;51300;-59
2022/03/27 04:41:05;;;;;;;;;37.50;33.75;;;;;;;;5015236;28;51245;-59
2022/03/27 04:43:32;;;;;;;;;39.75;35.25;;;;;;;;5027857;28;51111;-60
2022/03/27 04:45:58;;;;;;;;;52.75;43.00;;;;;;;;5019108;28;51144;-59
2022/03/27 04:48:25;;;;;;;;;35.50;32.00;;;;;;;;5026353;28;50988;-60
2022/03/27 04:50:50;;;;;;;;;38.00;34.25;;;;;;;;5020058;28;51345;-59
2022/03/27 04:53:16;;;;;;;;;34.50;33.25;;;;;;;;5024305;28;53901;-58
2022/03/27 04:55:41;;;;;;;;;38.25;34.00;;;;;;;;5033651;28;51086;-59
2022/03/27 04:58:10;;;;;;;;;35.50;33.50;;;;;;;;5021909;28;52205;-60
2022/03/27 05:00:35;;;;;;;;;36.75;34.00;;;;;;;;5032252;28;51366;-59
2022/03/27 05:03:00;;;;;;;;;37.50;34.25;;;;;;;;5022418;28;51141;-59
2022/03/27 05:05:25;;;;;;;;;37.50;34.50;;;;;;;;5029390;28;51039;-58
2022/03/27 05:07:51;;;;;;;;;35.75;33.50;;;;;;;;5034145;28;51085;-60
2022/03/27 05:10:16;;;;;;;;;39.50;33.75;;;;;;;;5031178;28;51202;-60
2022/03/27 05:12:41;;;;;;;;;33.00;31.75;;;;;;;;5030120;28;51753;-60
2022/03/27 05:15:09;;;;;;;;;47.50;36.75;;;;;;;;5023312;28;51111;-60
2022/03/27 05:17:43;;;;;;;;;36.75;34.75;;;;;;;;5027286;28;51127;-60
2022/03/27 05:20:09;;;;;;;;;39.00;34.00;;;;;;;;5026334;28;51527;-59
2022/03/27 05:22:35;;;;;;;;;35.25;32.75;;;;;;;;5031817;28;52239;-58
2022/03/27 05:25:00;;;;;;;;;36.50;33.50;;;;;;;;5029953;28;50918;-60
2022/03/27 05:27:25;;;;;;;;;34.00;32.25;;;;;;;;5032345;28;51143;-60
2022/03/27 05:29:50;;;;;;;;;30.25;28.50;;;;;;;;5033244;28;51233;-59
2022/03/27 05:32:16;;;;;;;;;42.25;35.50;;;;;;;;5033523;28;51492;-60
2022/03/27 05:34:41;;;;;;;;;39.75;34.00;;;;;;;;5026135;28;51143;-60
2022/03/27 05:37:06;;;;;;;;;34.75;33.75;;;;;;;;5027533;28;51266;-60
2022/03/27 05:39:31;;;;;;;;;37.50;35.00;;;;;;;;5027812;28;51131;-60
2022/03/27 05:41:56;;;;;;;;;42.75;35.00;;;;;;;;5025826;28;51884;-59
2022/03/27 05:44:22;;;;;;;;;34.00;32.25;;;;;;;;5019421;28;51110;-59
2022/03/27 05:46:47;;;;;;;;;34.50;32.75;;;;;;;;5031709;28;52510;-59
2022/03/27 05:49:12;;;;;;;;;41.00;36.00;;;;;;;;5016653;28;51995;-59
2022/03/27 05:51:37;;;;;;;;;41.00;35.00;;;;;;;;5031974;28;52163;-59
2022/03/27 05:54:02;;;;;;;;;36.00;34.00;;;;;;;;5029346;28;51247;-59
2022/03/27 05:56:28;;;;;;;;;35.75;32.75;;;;;;;;5029013;28;51060;-59
2022/03/27 05:58:53;;;;;;;;;37.00;32.50;;;;;;;;5020406;28;51052;-60
2022/03/27 06:01:19;;;;;;;;;38.75;34.75;;;;;;;;5021559;28;51998;-59
2022/03/27 06:03:44;;;;;;;;;35.50;32.75;;;;;;;;5030404;28;51168;-59
2022/03/27 06:06:09;;;;;;;;;41.50;35.00;;;;;;;;5031680;28;51110;-59
2022/03/27 06:08:34;;;;;;;;;39.75;34.25;;;;;;;;5022544;28;51357;-59
2022/03/27 06:11:00;;;;;;;;;37.75;34.00;;;;;;;;5023413;28;51035;-59
2022/03/27 06:13:25;;;;;;;;;35.25;33.00;;;;;;;;5025704;28;51246;-58
2022/03/27 06:15:51;;;;;;;;;37.00;30.75;;;;;;;;5023750;28;51564;-60
2022/03/27 06:18:16;;;;;;;;;35.50;33.00;;;;;;;;5018365;28;51170;-59
2022/03/27 06:20:43;;;;;;;;;44.25;34.25;;;;;;;;5019275;28;51859;-59
2022/03/27 06:23:08;;;;;;;;;38.25;34.75;;;;;;;;5029776;28;50944;-58
2022/03/27 06:25:34;;;;;;;;;38.75;34.00;;;;;;;;5023247;28;50929;-60
2022/03/27 06:28:00;;;;;;;;;39.50;36.00;;;;;;;;5026900;28;51235;-59
2022/03/27 06:30:27;;;;;;;;;37.75;34.00;;;;;;;;5026287;28;51964;-60
2022/03/27 06:32:52;;;;;;;;;36.50;32.25;;;;;;;;5031888;28;51158;-59
2022/03/27 06:35:19;;;;;;;;;36.00;33.50;;;;;;;;5018513;28;51023;-59
2022/03/27 06:37:45;;;;;;;;;35.75;33.25;;;;;;;;5035531;28;51950;-59
2022/03/27 06:40:11;;;;;;;;;39.25;36.00;;;;;;;;5035917;28;51598;-59
2022/03/27 06:42:36;;;;;;;;;40.00;34.50;;;;;;;;5017652;28;51257;-59
2022/03/27 06:45:02;;;;;;;;;38.50;34.00;;;;;;;;5023878;28;51614;-59
2022/03/27 06:47:28;;;;;;;;;43.25;35.50;;;;;;;;5025013;28;51398;-60
2022/03/27 06:49:54;;;;;;;;;39.75;34.25;;;;;;;;5026008;28;51416;-59
2022/03/27 06:52:19;;;;;;;;;41.50;35.75;;;;;;;;5025764;28;51175;-61
2022/03/27 06:54:45;;;;;;;;;41.50;35.00;;;;;;;;5020036;28;51504;-60
2022/03/27 06:57:11;;;;;;;;;33.25;31.00;;;;;;;;5029163;28;51368;-60
2022/03/27 07:05:04;;;;;;;;;36.75;34.50;;;;;;;;5011625;28;51223;-59
2022/03/27 07:07:30;;;;;;;;;37.50;33.50;;;;;;;;5028441;28;51288;-60
2022/03/27 07:09:55;;;;;;;;;38.25;35.00;;;;;;;;5031167;28;51182;-60
2022/03/27 07:12:20;;;;;;;;;41.75;33.25;;;;;;;;5025561;28;51123;-60
2022/03/27 07:14:46;;;;;;;;;37.75;34.00;;;;;;;;5016718;28;51079;-60
2022/03/27 07:17:13;;;;;;;;;34.75;31.50;;;;;;;;5015980;28;51219;-61
2022/03/27 07:19:39;;;;;;;;;31.75;30.75;;;;;;;;5020311;28;52384;-60
2022/03/27 07:22:04;;;;;;;;;39.50;35.00;;;;;;;;5019632;28;51583;-60
2022/03/27 07:24:29;;;;;;;;;40.00;34.00;;;;;;;;5022346;28;51275;-60
2022/03/27 07:26:54;;;;;;;;;35.25;32.50;;;;;;;;5021943;28;51538;-60
2022/03/27 07:29:20;;;;;;;;;34.75;31.25;;;;;;;;5027256;28;51016;-59
2022/03/27 07:31:45;;;;;;;;;37.25;32.00;;;;;;;;5027476;28;51201;-60
2022/03/27 07:34:10;;;;;;;;;34.00;30.50;;;;;;;;5024987;28;52111;-60
2022/03/27 07:36:36;;;;;;;;;33.00;31.25;;;;;;;;5026185;28;51223;-60
2022/03/27 07:39:01;;;;;;;;;36.75;33.25;;;;;;;;5031650;28;53768;-59
2022/03/27 07:41:26;;;;;;;;;32.75;30.00;;;;;;;;5027137;28;51407;-59
2022/03/27 07:43:51;;;;;;;;;33.00;31.25;;;;;;;;5029987;28;51051;-61
2022/03/27 07:46:17;;;;;;;;;33.50;31.00;;;;;;;;5020789;28;51052;-59
2022/03/27 07:48:42;;;;;;;;;32.25;29.75;;;;;;;;5028686;28;50990;-59
2022/03/27 07:51:08;;;;;;;;;38.50;32.25;;;;;;;;5022378;28;51131;-59
2022/03/27 07:53:33;;;;;;;;;33.50;30.00;;;;;;;;5019867;28;51080;-60
2022/03/27 07:55:58;;;;;;;;;34.25;32.00;;;;;;;;5024635;28;51224;-59
2022/03/27 07:58:24;;;;;;;;;36.25;32.50;;;;;;;;5024477;28;51079;-60
2022/03/27 08:00:49;;;;;;;;;34.00;31.75;;;;;;;;5023412;28;51438;-59
2022/03/27 08:03:15;;;;;;;;;35.25;31.00;;;;;;;;5027908;28;50984;-59
2022/03/27 08:05:42;;;;;;;;;34.75;32.25;;;;;;;;5019488;28;51071;-59
2022/03/27 08:08:07;;;;;;;;;48.50;40.50;;;;;;;;5019698;28;53622;-59
2022/03/27 08:10:33;;;;;;;;;32.50;29.75;;;;;;;;5017611;28;51123;-60
2022/03/27 08:12:59;;;;;;;;;32.50;31.00;;;;;;;;5018191;28;51037;-60
2022/03/27 08:15:24;;;;;;;;;34.50;32.00;;;;;;;;5018568;28;51209;-59
2022/03/27 08:17:54;;;;;;;;;31.75;29.75;;;;;;;;5012409;28;51805;-61
2022/03/27 08:20:20;;;;;;;;;35.50;31.75;;;;;;;;5022753;28;51559;-59
2022/03/27 08:22:45;;;;;;;;;30.50;27.50;;;;;;;;5018530;28;51091;-60
2022/03/27 08:26:55;;;;;;;;;32.00;29.75;;;;;;;;5017578;28;51123;-59
2022/03/27 08:27:55;;;;;;;;;33.50;30.25;;;;;;;;5030349;28;51542;-58
2022/03/27 08:30:21;;;;;;;;;31.25;30.00;;;;;;;;5029577;28;51358;-60
2022/03/27 08:32:46;;;;;;;;;28.25;27.75;;;;;;;;5025441;28;51881;-58
2022/03/27 08:35:11;;;;;;;;;31.00;29.00;;;;;;;;5026030;28;51211;-60
2022/03/27 08:37:37;;;;;;;;;29.25;29.00;;;;;;;;5024228;28;51176;-60
2022/03/27 08:40:02;;;;;;;;;30.25;28.75;;;;;;;;5024121;28;51270;-60
2022/03/27 08:42:28;;;;;;;;;34.00;31.75;;;;;;;;5026853;28;51578;-60
2022/03/27 08:44:53;;;;;;;;;36.00;30.75;;;;;;;;5026035;28;51025;-60
2022/03/27 08:47:24;;;;;;;;;33.50;29.75;;;;;;;;5032350;28;51876;-60
2022/03/27 08:49:55;;;;;;;;;33.25;30.25;;;;;;;;5032012;28;50973;-59
2022/03/27 08:52:21;;;;;;;;;28.75;28.00;;;;;;;;5033813;28;51130;-59
2022/03/27 08:54:52;;;;;;;;;25.75;24.00;;;;;;;;5036438;28;50991;-59
2022/03/27 08:57:23;;;;;;;;;32.75;30.00;;;;;;;;5033314;28;52408;-59
2022/03/27 08:59:50;;;;;;;;;31.00;30.00;;;;;;;;5031873;28;51220;-60
2022/03/27 09:02:16;;;;;;;;;35.25;32.75;;;;;;;;5034885;28;51350;-60
2022/03/27 09:04:41;;;;;;;;;35.75;31.75;;;;;;;;5040407;28;51357;-59
2022/03/27 09:07:06;;;;;;;;;31.50;30.00;;;;;;;;5032143;28;53098;-60
2022/03/27 09:09:35;;;;;;;;;34.50;32.00;;;;;;;;5031079;28;51186;-60
2022/03/27 09:12:04;;;;;;;;;26.00;26.00;;;;;;;;5027516;28;51150;-60
2022/03/27 09:14:32;;;;;;;;;30.50;28.50;;;;;;;;5025656;28;51260;-59
2022/03/27 09:17:05;;;;;;;;;30.00;29.00;;;;;;;;5020808;28;51181;-58
2022/03/27 09:19:31;;;;;;;;;26.00;25.75;;;;;;;;5022273;28;50984;-58
2022/03/27 09:21:56;;;;;;;;;28.50;27.50;;;;;;;;5032516;28;51142;-59
2022/03/27 09:24:31;;;;;;;;;29.00;27.75;;;;;;;;5027112;28;51353;-58
2022/03/27 09:26:59;;;;;;;;;30.00;28.00;;;;;;;;5022783;28;51205;-58
2022/03/27 09:29:24;;;;;;;;;30.00;28.75;;;;;;;;5028176;28;51107;-59
2022/03/27 09:31:55;;;;;;;;;34.50;31.00;;;;;;;;5025122;28;51111;-58
2022/03/27 09:34:21;;;;;;;;;27.00;25.50;;;;;;;;5022154;28;51095;-59
2022/03/27 09:36:46;;;;;;;;;31.00;28.00;;;;;;;;5019429;28;52190;-60
2022/03/27 09:39:13;;;;;;;;;36.50;31.75;;;;;;;;5025100;28;51269;-58
2022/03/27 09:41:38;;;;;;;;;35.25;32.00;;;;;;;;5019059;28;51274;-58
2022/03/27 09:44:05;;;;;;;;;25.75;24.50;;;;;;;;5028077;28;51135;-58
2022/03/27 09:46:48;;;;;;;;;30.00;29.25;;;;;;;;5016934;28;51912;-59
2022/03/27 09:49:15;;;;;;;;;27.50;25.50;;;;;;;;5024876;28;51154;-58
2022/03/27 09:51:53;;;;;;;;;29.75;27.75;;;;;;;;5044706;28;51390;-61
2022/03/27 09:54:19;;;;;;;;;29.25;28.50;;;;;;;;5025320;28;51006;-59
2022/03/27 09:56:44;;;;;;;;;29.25;27.75;;;;;;;;5030477;28;51062;-60
2022/03/27 09:59:24;;;;;;;;;28.00;26.75;;;;;;;;5018421;28;51150;-60
2022/03/27 10:01:49;;;;;;;;;33.00;29.00;;;;;;;;5021656;28;52535;-62
2022/03/27 10:04:16;;;;;;;;;30.00;29.00;;;;;;;;5017990;28;51280;-59
2022/03/27 10:06:41;;;;;;;;;34.00;30.00;;;;;;;;5020726;28;53730;-60
2022/03/27 10:09:08;;;;;;;;;26.75;26.50;;;;;;;;5028114;28;51170;-60
2022/03/27 10:11:34;;;;;;;;;35.75;31.75;;;;;;;;5020742;28;51079;-59
2022/03/27 10:14:00;;;;;;;;;36.25;31.50;;;;;;;;5021987;28;51445;-59
2022/03/27 10:16:28;;;;;;;;;32.75;30.75;;;;;;;;5023344;28;51741;-59
2022/03/27 10:18:55;;;;;;;;;30.75;29.00;;;;;;;;5024862;28;51116;-60
2022/03/27 10:21:21;;;;;;;;;27.75;26.25;;;;;;;;5030476;28;51216;-59
2022/03/27 10:23:48;;;;;;;;;31.75;29.00;;;;;;;;5021605;28;51337;-59
2022/03/27 10:26:14;;;;;;;;;29.50;27.25;;;;;;;;5021951;28;51781;-58
2022/03/27 10:28:39;;;;;;;;;21.25;19.25;;;;;;;;5031620;28;51237;-58
2022/03/27 10:31:06;;;;;;;;;31.50;29.25;;;;;;;;5024808;28;51203;-59
2022/03/27 10:33:33;;;;;;;;;27.00;27.00;;;;;;;;5030592;28;51322;-59
2022/03/27 10:36:35;;;;;;;;;29.00;28.25;;;;;;;;5024859;28;51827;-60
2022/03/27 10:39:22;;;;;;;;;31.25;29.00;;;;;;;;4957777;28;51028;-59
2022/03/27 10:42:09;;;;;;;;;26.00;23.25;;;;;;;;5015318;28;51381;-59
2022/03/27 10:44:40;;;;;;;;;27.50;27.25;;;;;;;;5017037;28;51389;-59
2022/03/27 10:47:22;;;;;;;;;28.25;26.25;;;;;;;;5020465;28;51159;-59
2022/03/27 10:50:05;;;;;;;;;30.00;28.25;;;;;;;;5029520;28;51115;-59
2022/03/27 10:52:32;;;;;;;;;34.00;30.75;;;;;;;;5031589;28;51087;-59
2022/03/27 10:54:58;;;;;;;;;32.25;29.25;;;;;;;;5022709;28;51089;-59
2022/03/27 10:57:34;;;;;;;;;26.00;23.25;;;;;;;;5016343;28;51224;-59
2022/03/27 11:00:00;;;;;;;;;31.00;29.00;;;;;;;;5020473;28;50977;-59
2022/03/27 11:02:44;;;;;;;;;28.00;26.75;;;;;;;;5019339;28;51171;-59
2022/03/27 11:05:45;;;;;;;;;31.00;29.25;;;;;;;;5030254;28;50878;-58
2022/03/27 11:08:19;;;;;;;;;28.50;28.50;;;;;;;;4938301;28;51857;-58
2022/03/27 11:10:51;;;;;;;;;35.50;30.50;;;;;;;;5014855;28;51264;-59
2022/03/27 11:13:26;;;;;;;;;35.00;31.50;;;;;;;;5029066;28;51122;-59
2022/03/27 11:16:20;;;;;;;;;31.50;28.50;;;;;;;;5025427;28;51566;-59
2022/03/27 11:18:47;;;;;;;;;29.00;28.50;;;;;;;;5019462;28;51866;-59
2022/03/27 11:21:13;;;;;;;;;29.50;27.50;;;;;;;;5028230;28;51142;-60
2022/03/27 11:23:40;;;;;;;;;32.25;30.50;;;;;;;;5023961;28;51023;-58
2022/03/27 11:26:27;;;;;;;;;24.75;23.75;;;;;;;;5016752;28;51408;-59
2022/03/27 11:28:53;;;;;;;;;33.50;29.25;;;;;;;;5024994;28;51804;-58
2022/03/27 11:31:21;;;;;;;;;32.75;30.75;;;;;;;;5015126;28;50925;-60
2022/03/27 11:34:05;;;;;;;;;29.50;29.00;;;;;;;;5023700;28;51333;-58
2022/03/27 11:36:31;;;;;;;;;28.00;26.25;;;;;;;;5015042;28;51250;-59
2022/03/27 11:39:02;;;;;;;;;34.25;31.00;;;;;;;;5019052;28;51500;-59
2022/03/27 11:41:30;;;;;;;;;32.00;30.25;;;;;;;;5019730;28;51056;-60
2022/03/27 11:43:56;;;;;;;;;31.75;28.75;;;;;;;;5014003;28;51082;-58
2022/03/27 11:46:26;;;;;;;;;32.25;30.00;;;;;;;;5010349;28;51055;-59
2022/03/27 11:48:59;;;;;;;;;35.00;32.00;;;;;;;;5020781;28;51209;-59
2022/03/27 11:51:26;;;;;;;;;30.75;29.25;;;;;;;;5004127;28;51238;-58
2022/03/27 11:53:52;;;;;;;;;30.25;28.75;;;;;;;;5003648;28;52797;-60
2022/03/27 11:56:18;;;;;;;;;37.25;32.75;;;;;;;;5000177;28;51454;-58
2022/03/27 11:58:43;;;;;;;;;34.50;31.50;;;;;;;;5003449;28;52827;-59
2022/03/27 12:01:09;;;;;;;;;34.00;31.25;;;;;;;;5009656;28;51196;-58
2022/03/27 12:03:36;;;;;;;;;33.25;30.25;;;;;;;;5010804;28;51213;-59
2022/03/27 12:06:09;;;;;;;;;34.25;31.50;;;;;;;;5006723;28;51346;-57
2022/03/27 12:08:36;;;;;;;;;28.50;28.25;;;;;;;;5004900;28;51225;-60
2022/03/27 12:11:06;;;;;;;;;32.50;30.50;;;;;;;;5012084;28;51383;-59
2022/03/27 12:13:35;;;;;;;;;29.75;28.75;;;;;;;;5007792;28;51926;-58
2022/03/27 12:16:01;;;;;;;;;31.75;30.00;;;;;;;;5008031;28;52440;-58
2022/03/27 12:18:30;;;;;;;;;33.50;30.00;;;;;;;;5010280;28;51820;-60
2022/03/27 12:20:55;;;;;;;;;32.00;30.00;;;;;;;;5008443;28;51212;-58
2022/03/27 12:23:24;;;;;;;;;34.00;32.00;;;;;;;;5006201;28;51196;-58
2022/03/27 12:25:56;;;;;;;;;31.75;29.25;;;;;;;;5009208;28;51794;-59
2022/03/27 12:31:17;;;;;;;;;33.00;30.25;;;;;;;;5007564;28;51217;-59
2022/03/27 12:33:43;;;;;;;;;26.75;24.75;;;;;;;;5020351;28;51356;-59
2022/03/27 12:36:13;;;;;;;;;31.75;28.25;;;;;;;;5009524;28;51589;-60
2022/03/27 12:38:39;;;;;;;;;31.75;29.75;;;;;;;;5008711;28;52859;-59
2022/03/27 12:41:04;;;;;;;;;38.00;32.75;;;;;;;;5007280;28;52488;-59
2022/03/27 12:43:29;;;;;;;;;33.25;31.00;;;;;;;;5009587;28;51307;-59
2022/03/27 12:45:55;;;;;;;;;29.25;28.25;;;;;;;;5010875;28;51750;-58
2022/03/27 12:48:27;;;;;;;;;27.75;27.25;;;;;;;;5013788;28;52060;-58
2022/03/27 12:50:59;;;;;;;;;32.75;28.75;;;;;;;;5017945;28;51272;-60
2022/03/27 12:53:25;;;;;;;;;30.50;28.25;;;;;;;;5014344;28;52105;-59
2022/03/27 12:55:57;;;;;;;;;33.00;29.75;;;;;;;;5023995;28;51318;-57
2022/03/27 12:58:38;;;;;;;;;27.75;24.00;;;;;;;;5017707;28;53776;-58
2022/03/27 13:01:05;;;;;;;;;37.25;32.50;;;;;;;;5024362;28;51012;-58
2022/03/27 13:03:30;;;;;;;;;35.75;32.00;;;;;;;;5021358;28;50967;-58
2022/03/27 13:05:58;;;;;;;;;32.00;29.50;;;;;;;;5032808;28;50989;-58
2022/03/27 13:08:25;;;;;;;;;34.00;30.50;;;;;;;;5010414;28;52289;-57
2022/03/27 13:10:54;;;;;;;;;31.75;30.25;;;;;;;;5027542;28;51021;-58
2022/03/27 13:13:30;;;;;;;;;33.75;31.00;;;;;;;;5022728;28;54849;-57
2022/03/27 13:15:56;;;;;;;;;35.50;31.25;;;;;;;;5015904;28;51109;-57
2022/03/27 13:18:31;;;;;;;;;35.75;31.50;;;;;;;;5012534;28;52699;-59
2022/03/27 13:20:57;;;;;;;;;30.75;27.25;;;;;;;;5017305;28;51119;-59
2022/03/27 13:23:22;;;;;;;;;30.25;28.00;;;;;;;;5025843;28;51151;-59
2022/03/27 13:25:47;;;;;;;;;21.00;19.50;;;;;;;;5021540;28;51272;-58
2022/03/27 13:28:13;;;;;;;;;26.75;25.25;;;;;;;;5039680;28;51905;-59
2022/03/27 13:30:38;;;;;;;;;30.00;28.00;;;;;;;;5038620;28;50910;-59
2022/03/27 13:33:04;;;;;;;;;31.50;29.75;;;;;;;;5022978;28;51159;-58
2022/03/27 13:35:30;;;;;;;;;18.00;17.25;;;;;;;;5021237;28;50917;-59
2022/03/27 13:37:55;;;;;;;;;32.75;30.25;;;;;;;;5019580;28;51438;-58
2022/03/27 13:40:21;;;;;;;;;15.50;13.00;;;;;;;;5022650;28;51095;-58
2022/03/27 13:43:00;;;;;;;;;35.50;30.00;;;;;;;;5022155;28;51244;-59
2022/03/27 13:45:26;;;;;;;;;30.75;28.25;;;;;;;;5029752;28;51318;-58
2022/03/27 13:47:51;;;;;;;;;36.50;31.75;;;;;;;;5022908;28;51621;-60
2022/03/27 13:50:17;;;;;;;;;32.75;30.50;;;;;;;;5031191;28;51012;-57
2022/03/27 13:52:42;;;;;;;;;35.25;31.75;;;;;;;;5020494;28;51075;-58
2022/03/27 13:55:08;;;;;;;;;32.50;28.50;;;;;;;;5036836;28;51182;-58
2022/03/27 13:57:34;;;;;;;;;25.75;23.75;;;;;;;;5032471;28;52054;-58
2022/03/27 13:59:59;;;;;;;;;31.75;30.00;;;;;;;;5014346;28;51305;-59
2022/03/27 14:02:24;;;;;;;;;33.75;30.75;;;;;;;;5021514;28;51311;-59
2022/03/27 14:04:51;;;;;;;;;31.00;28.25;;;;;;;;5021232;28;51005;-63
2022/03/27 14:07:17;;;;;;;;;33.75;31.25;;;;;;;;5014304;28;52132;-60
2022/03/27 14:09:43;;;;;;;;;34.75;29.75;;;;;;;;5013685;28;51303;-60
2022/03/27 14:12:10;;;;;;;;;33.25;31.25;;;;;;;;5018036;28;51139;-59
2022/03/27 14:14:35;;;;;;;;;32.25;30.50;;;;;;;;5012315;28;51304;-63
2022/03/27 14:17:02;;;;;;;;;31.25;30.00;;;;;;;;5030177;28;52279;-63
2022/03/27 14:19:27;;;;;;;;;30.25;30.00;;;;;;;;5029996;28;51087;-63
2022/03/27 14:21:55;;;;;;;;;37.50;31.75;;;;;;;;5031294;28;51021;-63
2022/03/27 14:24:20;;;;;;;;;29.50;28.00;;;;;;;;5021502;28;51392;-63
2022/03/27 14:26:46;;;;;;;;;38.25;31.75;;;;;;;;5028332;28;51264;-65
2022/03/27 14:29:11;;;;;;;;;26.50;24.25;;;;;;;;5022594;28;50941;-67